createdAt,value
2018-11-11T00:00:54.764Z,37.33
2018-11-11T00:03:23.296Z,38.02
2018-11-11T00:05:52.028Z,36.48
2018-11-11T00:08:20.989Z,35.25
2018-11-11T00:10:49.516Z,36.40
2018-11-11T00:13:18.056Z,38.17
2018-11-11T00:15:46.687Z,34.63
2018-11-11T00:18:15.216Z,37.98
2018-11-11T00:20:43.755Z,36.33
2018-11-11T00:23:12.558Z,38.38
2018-11-11T00:25:41.167Z,38.42
2018-11-11T00:28:10.072Z,36.23
2018-11-11T00:30:38.640Z,35.45
2018-11-11T00:33:07.200Z,34.98
2018-11-11T00:35:35.732Z,36.68
2018-11-11T00:38:04.880Z,32.67
2018-11-11T00:40:33.685Z,32.55
2018-11-11T00:43:02.233Z,33.30
2018-11-11T00:45:30.808Z,32.55
2018-11-11T00:47:59.351Z,33.25
2018-11-11T00:50:28.532Z,31.70
2018-11-11T00:52:57.389Z,33.70
2018-11-11T00:55:30.443Z,32.45
2018-11-11T00:57:59.367Z,31.77
2018-11-11T01:00:28.140Z,31.35
2018-11-11T01:02:56.675Z,31.73
2018-11-11T01:05:25.559Z,28.40
2018-11-11T01:07:54.119Z,30.90
2018-11-11T01:10:23.055Z,29.95
2018-11-11T01:12:51.667Z,31.02
2018-11-11T01:15:20.207Z,29.25
2018-11-11T01:17:48.751Z,31.42
2018-11-11T01:20:18.163Z,32.00
2018-11-11T01:22:47.137Z,30.85
2018-11-11T01:25:16.815Z,31.37
2018-11-11T01:27:45.361Z,31.80
2018-11-11T01:30:13.939Z,30.15
2018-11-11T01:32:42.461Z,28.38
2018-11-11T01:35:13.339Z,30.65
2018-11-11T01:37:42.432Z,31.42
2018-11-11T01:40:11.110Z,32.03
2018-11-11T01:42:39.779Z,31.82
2018-11-11T01:45:12.475Z,30.35
2018-11-11T01:47:41.287Z,32.00
2018-11-11T01:50:10.847Z,29.52
2018-11-11T01:52:39.759Z,30.72
2018-11-11T01:55:09.528Z,28.62
2018-11-11T01:57:38.308Z,29.70
2018-11-11T02:00:08.816Z,27.75
2018-11-11T02:02:37.620Z,29.85
2018-11-11T02:05:07.135Z,26.02
2018-11-11T02:07:35.596Z,27.45
2018-11-11T02:10:05.518Z,25.97
2018-11-11T02:12:33.968Z,26.93
2018-11-11T02:15:02.572Z,26.17
2018-11-11T02:17:31.048Z,25.15
2018-11-11T02:19:59.771Z,26.87
2018-11-11T02:22:28.248Z,28.40
2018-11-11T02:24:57.048Z,28.47
2018-11-11T02:27:25.492Z,27.35
2018-11-11T02:29:53.928Z,27.90
2018-11-11T02:32:22.917Z,26.57
2018-11-11T02:34:51.733Z,27.40
2018-11-11T02:37:20.276Z,27.00
2018-11-11T02:39:48.864Z,25.50
2018-11-11T02:42:17.300Z,25.50
2018-11-11T02:44:45.747Z,24.30
2018-11-11T02:47:14.220Z,26.27
2018-11-11T02:49:42.672Z,25.02
2018-11-11T02:52:11.436Z,25.57
2018-11-11T02:54:39.906Z,27.82
2018-11-11T02:57:08.587Z,25.25
2018-11-11T02:59:37.154Z,27.87
2018-11-11T03:02:06.078Z,25.88
2018-11-11T03:04:34.821Z,25.72
2018-11-11T03:07:03.263Z,26.93
2018-11-11T03:09:31.839Z,25.72
2018-11-11T03:12:00.563Z,27.05
2018-11-11T03:14:29.031Z,26.90
2018-11-11T03:16:57.503Z,28.75
2018-11-11T03:19:26.108Z,25.55
2018-11-11T03:21:54.647Z,25.68
2018-11-11T03:24:23.147Z,26.20
2018-11-11T03:26:51.799Z,27.40
2018-11-11T03:29:20.244Z,25.27
2018-11-11T03:31:49.082Z,26.05
2018-11-11T03:34:17.552Z,25.00
2018-11-11T03:36:46.303Z,25.37
2018-11-11T03:39:14.799Z,26.27
2018-11-11T03:41:43.936Z,25.30
2018-11-11T03:44:12.375Z,27.42
2018-11-11T03:46:41.139Z,26.12
2018-11-11T03:49:09.685Z,26.33
2018-11-11T03:51:38.131Z,27.52
2018-11-11T03:54:06.694Z,26.52
2018-11-11T03:56:35.123Z,27.25
2018-11-11T03:59:04.048Z,29.07
2018-11-11T04:01:32.568Z,28.55
2018-11-11T04:04:01.035Z,27.77
2018-11-11T04:06:29.507Z,25.08
2018-11-11T04:08:57.970Z,26.27
2018-11-11T04:11:26.423Z,28.47
2018-11-11T04:13:54.887Z,27.90
2018-11-11T04:16:23.395Z,27.32
2018-11-11T04:18:52.147Z,26.73
2018-11-11T04:21:20.984Z,25.12
2018-11-11T04:23:49.727Z,27.87
2018-11-11T04:26:18.167Z,29.47
2018-11-11T04:28:46.926Z,28.60
2018-11-11T04:31:15.395Z,29.25
2018-11-11T04:33:44.103Z,28.27
2018-11-11T04:36:12.583Z,30.15
2018-11-11T04:38:41.097Z,28.27
2018-11-11T04:41:09.531Z,30.57
2018-11-11T04:43:38.011Z,29.85
2018-11-11T04:46:06.782Z,29.63
2018-11-11T04:48:35.315Z,31.10
2018-11-11T04:51:04.875Z,31.23
2018-11-11T04:53:33.424Z,31.48
2018-11-11T04:56:02.188Z,33.50
2018-11-11T04:58:31.103Z,32.13
2018-11-11T05:00:59.879Z,32.53
2018-11-11T05:03:28.371Z,33.58
2018-11-11T05:05:56.857Z,34.65
2018-11-11T05:08:25.474Z,32.90
2018-11-11T05:10:53.947Z,31.93
2018-11-11T05:13:22.880Z,35.20
2018-11-11T05:15:51.438Z,35.98
2018-11-11T05:18:19.906Z,34.67
2018-11-11T05:20:48.330Z,34.35
2018-11-11T05:23:16.895Z,34.38
2018-11-11T05:25:45.367Z,34.03
2018-11-11T05:28:14.147Z,33.83
2018-11-11T05:30:42.812Z,34.13
2018-11-11T05:33:11.291Z,35.40
2018-11-11T05:35:39.730Z,34.33
2018-11-11T05:38:08.190Z,36.33
2018-11-11T05:40:36.762Z,35.28
2018-11-11T05:43:05.518Z,36.08
2018-11-11T05:45:33.958Z,36.55
2018-11-11T05:48:02.531Z,36.58
2018-11-11T05:50:30.990Z,37.60
2018-11-11T05:52:59.442Z,36.50
2018-11-11T05:55:27.922Z,36.77
2018-11-11T05:57:56.570Z,38.50
2018-11-11T06:00:25.058Z,39.33
2018-11-11T06:02:53.650Z,37.10
2018-11-11T06:05:22.114Z,37.05
2018-11-11T06:08:05.346Z,36.50
2018-11-11T06:10:33.798Z,31.45
2018-11-11T06:13:02.262Z,34.98
2018-11-11T06:15:30.754Z,29.55
2018-11-11T06:17:59.517Z,36.03
2018-11-11T06:20:27.977Z,33.30
2018-11-11T06:22:56.612Z,36.65
2018-11-11T06:25:25.086Z,35.40
2018-11-11T06:27:53.538Z,36.60
2018-11-11T06:30:22.042Z,35.50
2018-11-11T06:32:50.978Z,38.90
2018-11-11T06:35:19.442Z,37.05
2018-11-11T06:37:48.206Z,37.75
2018-11-11T06:40:16.730Z,38.95
2018-11-11T06:42:45.473Z,40.17
2018-11-11T06:45:15.045Z,37.73
2018-11-11T06:47:44.237Z,38.90
2018-11-11T06:50:13.633Z,37.83
2018-11-11T06:52:42.646Z,37.88
2018-11-11T06:55:11.549Z,36.73
2018-11-11T06:57:40.265Z,38.38
2018-11-11T07:00:10.822Z,37.90
2018-11-11T07:02:40.438Z,34.03
2018-11-11T07:05:09.961Z,34.58
2018-11-11T07:07:38.807Z,30.70
2018-11-11T07:10:07.314Z,34.53
2018-11-11T07:12:35.762Z,37.53
2018-11-11T07:15:05.093Z,34.92
2018-11-11T07:17:33.853Z,37.85
2018-11-11T07:20:02.398Z,32.95
2018-11-11T07:22:30.870Z,36.83
2018-11-11T07:24:59.329Z,36.95
2018-11-11T07:27:27.890Z,37.23
2018-11-11T07:29:56.389Z,37.15
2018-11-11T07:32:24.857Z,36.30
2018-11-11T07:34:53.684Z,34.23
2018-11-11T07:37:22.713Z,37.30
2018-11-11T07:39:51.533Z,36.33
2018-11-11T07:42:20.056Z,34.95
2018-11-11T07:44:48.593Z,36.58
2018-11-11T07:47:17.405Z,35.08
2018-11-11T07:49:45.858Z,34.95
2018-11-11T07:52:14.817Z,34.98
2018-11-11T07:54:43.318Z,34.73
2018-11-11T07:57:11.834Z,33.13
2018-11-11T07:59:40.365Z,35.38
2018-11-11T08:02:09.430Z,34.48
2018-11-11T08:04:38.013Z,32.83
2018-11-11T08:07:07.238Z,32.13
2018-11-11T08:09:35.924Z,34.08
2018-11-11T08:12:06.001Z,33.75
2018-11-11T08:14:34.589Z,32.77
2018-11-11T08:17:03.193Z,33.58
2018-11-11T08:19:32.016Z,32.53
2018-11-11T08:22:00.597Z,32.67
2018-11-11T08:24:29.161Z,30.30
2018-11-11T08:26:57.740Z,32.05
2018-11-11T08:29:26.368Z,31.42
2018-11-11T08:31:55.057Z,33.92
2018-11-11T08:34:23.809Z,33.23
2018-11-11T08:36:52.429Z,32.95
2018-11-11T08:39:21.032Z,32.43
2018-11-11T08:41:49.576Z,33.65
2018-11-11T08:44:18.168Z,32.23
2018-11-11T08:46:46.800Z,30.82
2018-11-11T08:49:15.524Z,29.77
2018-11-11T08:51:44.084Z,32.25
2018-11-11T08:54:12.592Z,32.20
2018-11-11T08:56:41.056Z,33.05
2018-11-11T08:59:09.933Z,31.82
2018-11-11T09:01:38.440Z,32.67
2018-11-11T09:04:07.248Z,28.23
2018-11-11T09:06:35.717Z,31.45
2018-11-11T09:09:06.203Z,32.33
2018-11-11T09:11:35.045Z,31.65
2018-11-11T09:14:03.836Z,30.62
2018-11-11T09:16:33.109Z,31.77
2018-11-11T09:19:01.592Z,30.65
2018-11-11T09:21:30.540Z,32.15
2018-11-11T09:23:58.984Z,28.60
2018-11-11T09:26:28.447Z,28.83
2018-11-11T09:28:57.114Z,29.87
2018-11-11T09:31:25.736Z,28.73
2018-11-11T09:33:54.507Z,28.17
2018-11-11T09:36:22.987Z,28.10
2018-11-11T09:38:51.750Z,28.05
2018-11-11T09:41:20.416Z,28.25
2018-11-11T09:43:48.880Z,26.48
2018-11-11T09:46:17.335Z,29.10
2018-11-11T09:48:45.859Z,28.25
2018-11-11T09:51:14.344Z,27.42
2018-11-11T09:53:42.864Z,28.42
2018-11-11T09:56:11.480Z,29.72
2018-11-11T09:58:40.066Z,28.42
2018-11-11T10:01:09.620Z,27.80
2018-11-11T10:03:40.403Z,27.48
2018-11-11T10:06:22.396Z,28.25
2018-11-11T10:09:02.512Z,28.50
2018-11-11T10:11:36.544Z,25.30
2018-11-11T10:14:09.232Z,25.40
2018-11-11T10:16:56.291Z,27.22
2018-11-11T10:19:30.104Z,26.37
2018-11-11T10:22:19.727Z,28.47
2018-11-11T10:27:00.067Z,25.90
2018-11-11T10:29:33.790Z,25.45
2018-11-11T10:32:15.158Z,26.07
2018-11-11T10:34:49.029Z,26.82
2018-11-11T10:37:24.203Z,26.45
2018-11-11T10:39:59.998Z,24.40
2018-11-11T10:42:35.498Z,25.85
2018-11-11T10:45:40.046Z,26.30
2018-11-11T10:48:09.454Z,23.75
2018-11-11T10:50:44.753Z,27.98
2018-11-11T10:53:13.330Z,27.15
2018-11-11T10:55:41.957Z,25.32
2018-11-11T10:58:10.451Z,24.02
2018-11-11T11:00:44.391Z,27.55
2018-11-11T11:03:18.283Z,25.77
2018-11-11T11:05:47.177Z,23.67
2018-11-11T11:08:15.742Z,25.88
2018-11-11T11:10:44.442Z,27.37
2018-11-11T11:13:13.269Z,25.48
2018-11-11T11:15:41.862Z,25.65
2018-11-11T11:18:10.402Z,25.77
2018-11-11T11:20:38.958Z,23.85
2018-11-11T11:23:07.559Z,24.35
2018-11-11T11:25:36.268Z,23.10
2018-11-11T11:28:04.778Z,24.75
2018-11-11T11:30:33.238Z,25.25
2018-11-11T11:33:01.726Z,25.17
2018-11-11T11:35:30.490Z,24.85
2018-11-11T11:37:59.384Z,25.30
2018-11-11T11:40:27.886Z,24.57
2018-11-11T11:42:56.702Z,25.68
2018-11-11T11:45:25.765Z,25.30
2018-11-11T11:47:54.686Z,23.92
2018-11-11T11:50:23.558Z,24.67
2018-11-11T11:52:52.635Z,27.52
2018-11-11T11:55:21.770Z,26.55
2018-11-11T11:58:01.785Z,26.17
2018-11-11T12:00:30.537Z,26.12
2018-11-11T12:03:05.930Z,25.45
2018-11-11T12:05:34.702Z,27.22
2018-11-11T12:08:04.673Z,26.62
2018-11-11T12:10:33.581Z,27.17
2018-11-11T12:13:02.386Z,26.17
2018-11-11T12:15:31.397Z,27.35
2018-11-11T12:18:00.877Z,28.75
2018-11-11T12:20:29.977Z,27.25
2018-11-11T12:22:59.714Z,26.37
2018-11-11T12:25:28.875Z,25.10
2018-11-11T12:27:58.181Z,27.35
2018-11-11T12:30:27.183Z,25.57
2018-11-11T12:32:56.026Z,25.50
2018-11-11T12:35:24.894Z,25.50
2018-11-11T12:37:53.909Z,25.25
2018-11-11T12:40:22.907Z,26.10
2018-11-11T12:42:51.817Z,25.72
2018-11-11T12:45:20.733Z,25.62
2018-11-11T12:47:49.497Z,26.85
2018-11-11T12:50:18.377Z,26.57
2018-11-11T12:52:47.063Z,26.68
2018-11-11T12:55:15.973Z,26.70
2018-11-11T12:57:46.657Z,25.43
2018-11-11T13:00:21.689Z,26.60
2018-11-11T13:02:50.737Z,28.60
2018-11-11T13:05:19.458Z,25.92
2018-11-11T13:07:48.193Z,27.50
2018-11-11T13:10:16.872Z,28.62
2018-11-11T13:12:45.511Z,27.95
2018-11-11T13:15:14.841Z,28.25
2018-11-11T13:17:44.025Z,27.98
2018-11-11T13:20:14.133Z,27.30
2018-11-11T13:22:42.790Z,26.42
2018-11-11T13:25:12.249Z,27.27
2018-11-11T13:27:40.912Z,28.12
2018-11-11T13:30:11.376Z,29.27
2018-11-11T13:32:39.856Z,29.05
2018-11-11T13:35:10.220Z,26.85
2018-11-11T13:37:39.183Z,27.95
2018-11-11T13:41:13.684Z,27.70
2018-11-11T13:43:43.160Z,28.02
2018-11-11T13:46:34.049Z,27.73
2018-11-11T13:49:02.823Z,26.05
2018-11-11T13:51:31.375Z,28.55
2018-11-11T13:54:00.228Z,28.83
2018-11-11T13:56:39.898Z,28.20
2018-11-11T13:59:09.125Z,27.55
2018-11-11T14:01:38.097Z,27.22
2018-11-11T14:04:06.890Z,27.60
2018-11-11T14:06:35.498Z,29.70
2018-11-11T14:09:09.210Z,27.65
2018-11-11T14:11:37.918Z,26.87
2018-11-11T14:14:09.059Z,28.95
2018-11-11T14:16:38.360Z,27.55
2018-11-11T14:19:07.841Z,29.12
2018-11-11T14:21:36.378Z,29.65
2018-11-11T14:24:05.099Z,28.55
2018-11-11T14:26:33.951Z,29.12
2018-11-11T14:29:02.307Z,27.70
2018-11-11T14:31:30.774Z,28.45
2018-11-11T14:33:59.283Z,30.10
2018-11-11T14:36:27.887Z,29.20
2018-11-11T14:38:56.513Z,29.12
2018-11-11T14:41:24.982Z,28.70
2018-11-11T14:43:53.443Z,28.57
2018-11-11T14:46:22.206Z,28.12
2018-11-11T14:48:51.398Z,28.05
2018-11-11T14:51:20.415Z,28.80
2018-11-11T14:56:31.786Z,26.05
2018-11-11T14:59:00.888Z,29.27
2018-11-11T15:01:29.791Z,27.98
2018-11-11T15:04:05.383Z,29.63
2018-11-11T15:06:33.930Z,29.40
2018-11-11T15:09:03.090Z,26.73
2018-11-11T15:11:32.047Z,29.15
2018-11-11T15:14:00.690Z,26.42
2018-11-11T15:16:29.560Z,26.75
2018-11-11T15:19:01.436Z,30.43
2018-11-11T15:21:30.118Z,27.77
2018-11-11T15:23:59.250Z,28.30
2018-11-11T15:26:29.978Z,25.65
2018-11-11T15:28:59.999Z,28.42
2018-11-11T15:31:28.624Z,28.17
2018-11-11T15:33:57.474Z,25.92
2018-11-11T15:36:26.654Z,30.25
2018-11-11T15:38:55.906Z,27.05
2018-11-11T15:41:24.600Z,28.20
2018-11-11T15:43:53.150Z,28.17
2018-11-11T15:46:22.100Z,29.00
2018-11-11T15:48:53.328Z,27.90
2018-11-11T15:51:22.249Z,28.60
2018-11-11T16:10:35.297Z,26.42
2018-11-11T16:13:05.084Z,28.57
2018-11-11T16:15:38.377Z,29.67
2018-11-11T16:18:09.104Z,27.90
2018-11-11T16:26:29.384Z,29.30
2018-11-11T16:28:58.248Z,31.27
2018-11-11T16:31:27.201Z,30.02
2018-11-11T16:33:56.123Z,30.88
2018-11-11T16:36:25.182Z,31.42
2018-11-11T16:38:54.616Z,31.23
2018-11-11T16:41:23.772Z,29.80
2018-11-11T16:43:52.612Z,31.15
2018-11-11T16:46:21.871Z,32.48
2018-11-11T16:48:50.932Z,31.30
2018-11-11T16:51:20.528Z,30.92
2018-11-11T16:54:57.655Z,31.27
2018-11-11T16:57:51.337Z,32.88
2018-11-11T17:00:36.864Z,32.37
2018-11-11T17:03:07.233Z,31.65
2018-11-11T17:05:37.287Z,31.93
2018-11-11T17:08:06.591Z,30.95
2018-11-11T17:10:39.124Z,32.20
2018-11-11T17:43:01.974Z,25.52
2018-11-11T17:45:30.957Z,31.90
2018-11-11T17:48:00.290Z,35.05
2018-11-11T17:50:31.905Z,31.33
2018-11-11T17:59:34.874Z,31.95
2018-11-11T18:02:49.462Z,32.48
2018-11-11T18:05:20.134Z,32.25
2018-11-11T18:07:55.257Z,36.08
2018-11-11T18:10:27.464Z,35.67
2018-11-11T18:12:57.617Z,34.73
2018-11-11T18:15:28.637Z,33.25
2018-11-11T18:18:00.230Z,36.67
2018-11-11T18:23:41.034Z,33.70
2018-11-11T18:26:09.848Z,35.63
2018-11-11T18:28:38.584Z,35.80
2018-11-11T18:31:07.038Z,32.25
2018-11-11T18:33:35.862Z,36.75
2018-11-11T18:36:05.292Z,36.80
2018-11-11T18:38:34.161Z,36.28
2018-11-11T18:41:03.089Z,37.58
2018-11-11T18:43:32.002Z,35.55
2018-11-11T18:46:35.469Z,37.00
2018-11-11T18:49:05.373Z,38.33
2018-11-11T19:12:21.141Z,38.30
2018-11-11T19:14:50.060Z,39.58
2018-11-11T19:17:19.031Z,37.13
2018-11-11T19:19:54.113Z,37.63
2018-11-11T19:22:23.133Z,36.47
2018-11-11T19:27:43.840Z,38.17
2018-11-11T19:30:14.426Z,34.85
2018-11-11T19:33:14.257Z,38.15
2018-11-11T19:38:46.129Z,37.20
2018-11-11T19:41:18.023Z,38.29
2018-11-11T19:43:47.041Z,36.68
2018-11-11T19:46:15.851Z,39.05
2018-11-11T19:48:44.693Z,36.93
2018-11-11T20:16:58.097Z,38.17
2018-11-11T20:19:26.996Z,38.90
2018-11-11T20:21:55.841Z,35.55
2018-11-11T20:24:25.597Z,38.65
2018-11-11T20:26:56.645Z,37.58
2018-11-11T20:29:25.480Z,37.75
2018-11-11T20:31:54.623Z,40.15
2018-11-11T20:34:23.494Z,39.67
2018-11-11T20:36:52.394Z,36.25
2018-11-11T20:39:21.250Z,38.07
2018-11-11T20:41:50.172Z,37.42
2018-11-11T20:44:19.500Z,37.83
2018-11-11T20:46:48.240Z,40.12
2018-11-11T20:49:17.344Z,39.67
2018-11-11T20:51:46.296Z,36.95
2018-11-11T20:54:15.523Z,38.30
2018-11-11T20:56:45.448Z,39.67
2018-11-11T20:59:14.313Z,39.00
2018-11-11T21:01:47.055Z,39.03
2018-11-11T21:04:16.076Z,37.42
2018-11-11T21:06:45.461Z,37.40
2018-11-11T21:09:14.790Z,38.75
2018-11-11T21:11:53.689Z,39.03
2018-11-11T21:14:24.542Z,38.88
2018-11-11T21:16:55.187Z,36.17
2018-11-11T21:19:24.257Z,40.40
2018-11-11T21:21:53.176Z,38.70
2018-11-11T21:24:37.889Z,40.92
2018-11-11T21:27:07.094Z,38.10
2018-11-11T21:29:39.126Z,36.90
2018-11-11T21:32:10.588Z,40.33
2018-11-11T21:34:39.434Z,38.07
2018-11-11T21:37:08.534Z,39.00
2018-11-11T21:39:39.818Z,37.17
2018-11-11T21:42:09.002Z,39.58
2018-11-11T21:47:13.661Z,39.27
2018-11-11T21:49:43.041Z,39.23
2018-11-11T21:52:11.788Z,38.38
2018-11-11T21:54:40.590Z,37.42
2018-11-11T21:57:09.392Z,39.63
2018-11-11T21:59:38.477Z,39.85
2018-11-11T22:02:07.274Z,39.90
2018-11-11T22:04:36.730Z,40.67
2018-11-11T22:07:05.885Z,41.42
2018-11-11T22:09:34.717Z,40.35
2018-11-11T22:12:03.929Z,41.20
2018-11-11T22:17:07.802Z,42.08
2018-11-11T22:19:36.689Z,40.03
2018-11-11T22:22:07.851Z,41.44
2018-11-11T22:24:37.369Z,39.05
2018-11-11T22:27:10.691Z,42.16
2018-11-11T22:29:40.394Z,43.33
2018-11-11T22:32:09.478Z,45.33
2018-11-11T22:34:40.098Z,41.63
2018-11-11T22:37:12.053Z,45.10
2018-11-11T22:39:40.925Z,42.45
2018-11-11T22:42:10.423Z,44.33
2018-11-11T22:44:39.507Z,44.40
2018-11-11T22:47:08.375Z,43.85
2018-11-11T22:49:37.310Z,45.55
2018-11-11T22:52:06.448Z,44.20
2018-11-11T22:54:35.634Z,46.02
2018-11-11T22:57:06.553Z,44.32
2018-11-11T22:59:35.297Z,45.03
2018-11-11T23:02:05.250Z,44.10
2018-11-11T23:04:34.162Z,45.30
2018-11-11T23:07:03.513Z,47.13
2018-11-11T23:09:32.306Z,46.42
2018-11-11T23:12:01.092Z,47.30
2018-11-11T23:14:29.912Z,45.35
2018-11-11T23:16:58.911Z,46.40
2018-11-11T23:19:29.815Z,45.12
2018-11-11T23:21:58.936Z,45.38
2018-11-11T23:24:27.754Z,46.95
2018-11-11T23:26:56.408Z,44.73
2018-11-11T23:29:25.171Z,44.60
2018-11-11T23:31:53.908Z,47.60
2018-11-11T23:34:22.672Z,46.20
2018-11-11T23:36:51.451Z,47.73
2018-11-11T23:39:20.203Z,47.95
2018-11-11T23:41:49.187Z,49.83
2018-11-11T23:44:17.947Z,46.37
2018-11-11T23:46:46.623Z,45.50
2018-11-11T23:49:15.301Z,46.10
2018-11-11T23:51:44.015Z,46.40
2018-11-11T23:54:14.023Z,47.00
2018-11-11T23:56:42.731Z,48.28
2018-11-11T23:59:11.575Z,47.27
